sensor_id;sensor_type;location;lat;lon;timestamp;P1;durP1;ratioP1;P2;durP2;ratioP2
3379;SDS011;1703;51.964;7.642;2024-01-15T00:00:17;13.43;;;5.93;;
3379;SDS011;1703;51.964;7.642;2024-01-15T00:02:44;9.83;;;5.50;;
3379;SDS011;1703;51.964;7.642;2024-01-15T00:05:11;11.70;;;6.00;;
3379;SDS011;1703;51.964;7.642;2024-01-15T00:07:38;13.07;;;7.20;;
3379;SDS011;1703;51.964;7.642;2024-01-15T00:10:05;11.50;;;7.27;;
3379;SDS011;1703;51.964;7.642;2024-01-15T00:12:32;10.47;;;6.37;;
3379;SDS011;1703;51.964;7.642;2024-01-15T00:14:58;14.00;;;6.40;;
3379;SDS011;1703;51.964;7.642;2024-01-15T00:17:27;10.23;;;6.13;;
3379;SDS011;1703;51.964;7.642;2024-01-15T00:19:53;11.03;;;6.63;;
3379;SDS011;1703;51.964;7.642;2024-01-15T00:22:20;14.27;;;7.70;;
3379;SDS011;1703;51.964;7.642;2024-01-15T00:24:47;10.37;;;6.40;;
3379;SDS011;1703;51.964;7.642;2024-01-15T00:27:14;8.17;;;5.73;;
3379;SDS011;1703;51.964;7.642;2024-01-15T00:29:40;8.00;;;5.87;;
3379;SDS011;1703;51.964;7.642;2024-01-15T00:32:08;8.40;;;4.97;;
3379;SDS011;1703;51.964;7.642;2024-01-15T00:34:36;10.40;;;6.23;;
3379;SDS011;1703;51.964;7.642;2024-01-15T00:37:03;10.10;;;6.53;;
3379;SDS011;1703;51.964;7.642;2024-01-15T00:39:32;9.63;;;5.67;;
3379;SDS011;1703;51.964;7.642;2024-01-15T00:41:58;9.20;;;5.40;;
3379;SDS011;1703;51.964;7.642;2024-01-15T00:44:25;5.17;;;4.20;;
3379;SDS011;1703;51.964;7.642;2024-01-15T00:46:52;9.10;;;5.53;;
3379;SDS011;1703;51.964;7.642;2024-01-15T00:49:19;12.57;;;5.50;;
3379;SDS011;1703;51.964;7.642;2024-01-15T00:51:47;7.57;;;4.83;;
3379;SDS011;1703;51.964;7.642;2024-01-15T00:54:14;12.87;;;5.47;;
3379;SDS011;1703;51.964;7.642;2024-01-15T00:56:40;7.40;;;6.20;;
3379;SDS011;1703;51.964;7.642;2024-01-15T00:59:07;9.93;;;5.77;;
3379;SDS011;1703;51.964;7.642;2024-01-15T01:01:35;6.13;;;5.03;;
3379;SDS011;1703;51.964;7.642;2024-01-15T01:04:03;10.33;;;5.90;;
3379;SDS011;1703;51.964;7.642;2024-01-15T01:06:30;17.40;;;7.40;;
3379;SDS011;1703;51.964;7.642;2024-01-15T01:08:58;25.73;;;5.93;;
3379;SDS011;1703;51.964;7.642;2024-01-15T01:11:25;11.00;;;7.30;;
3379;SDS011;1703;51.964;7.642;2024-01-15T01:13:51;11.90;;;7.10;;
3379;SDS011;1703;51.964;7.642;2024-01-15T01:16:18;15.67;;;8.10;;
3379;SDS011;1703;51.964;7.642;2024-01-15T01:18:45;14.00;;;8.30;;
3379;SDS011;1703;51.964;7.642;2024-01-15T01:21:12;12.00;;;7.53;;
3379;SDS011;1703;51.964;7.642;2024-01-15T01:23:38;16.60;;;8.77;;
3379;SDS011;1703;51.964;7.642;2024-01-15T01:26:06;16.87;;;8.23;;
3379;SDS011;1703;51.964;7.642;2024-01-15T01:28:33;18.13;;;10.07;;
3379;SDS011;1703;51.964;7.642;2024-01-15T01:31:00;21.57;;;9.90;;
3379;SDS011;1703;51.964;7.642;2024-01-15T01:33:27;15.93;;;9.43;;
3379;SDS011;1703;51.964;7.642;2024-01-15T01:35:53;19.87;;;8.27;;
3379;SDS011;1703;51.964;7.642;2024-01-15T01:38:22;15.40;;;9.07;;
3379;SDS011;1703;51.964;7.642;2024-01-15T01:40:48;16.03;;;8.80;;
3379;SDS011;1703;51.964;7.642;2024-01-15T01:43:16;14.17;;;7.87;;
3379;SDS011;1703;51.964;7.642;2024-01-15T01:45:43;13.67;;;7.70;;
3379;SDS011;1703;51.964;7.642;2024-01-15T01:48:10;15.87;;;7.80;;
3379;SDS011;1703;51.964;7.642;2024-01-15T01:50:37;17.87;;;8.10;;
3379;SDS011;1703;51.964;7.642;2024-01-15T01:53:04;11.97;;;7.37;;
3379;SDS011;1703;51.964;7.642;2024-01-15T01:55:31;14.53;;;6.77;;
3379;SDS011;1703;51.964;7.642;2024-01-15T01:57:59;16.97;;;8.37;;
3379;SDS011;1703;51.964;7.642;2024-01-15T02:00:29;14.70;;;7.37;;
3379;SDS011;1703;51.964;7.642;2024-01-15T02:02:57;15.27;;;7.57;;
3379;SDS011;1703;51.964;7.642;2024-01-15T02:05:24;12.63;;;7.00;;
3379;SDS011;1703;51.964;7.642;2024-01-15T02:07:53;22.13;;;8.73;;
3379;SDS011;1703;51.964;7.642;2024-01-15T02:10:20;13.77;;;6.83;;
3379;SDS011;1703;51.964;7.642;2024-01-15T02:12:46;15.03;;;7.13;;
3379;SDS011;1703;51.964;7.642;2024-01-15T02:15:13;16.97;;;8.33;;
3379;SDS011;1703;51.964;7.642;2024-01-15T02:20:33;12.93;;;7.07;;
3379;SDS011;1703;51.964;7.642;2024-01-15T02:23:05;11.90;;;6.93;;
3379;SDS011;1703;51.964;7.642;2024-01-15T02:25:35;8.13;;;6.13;;
3379;SDS011;1703;51.964;7.642;2024-01-15T02:28:02;15.83;;;7.40;;
3379;SDS011;1703;51.964;7.642;2024-01-15T02:30:30;16.10;;;6.40;;
3379;SDS011;1703;51.964;7.642;2024-01-15T02:32:57;9.40;;;6.00;;
3379;SDS011;1703;51.964;7.642;2024-01-15T02:35:24;11.67;;;7.27;;
3379;SDS011;1703;51.964;7.642;2024-01-15T02:37:51;14.17;;;7.07;;
3379;SDS011;1703;51.964;7.642;2024-01-15T02:40:19;13.67;;;7.40;;
3379;SDS011;1703;51.964;7.642;2024-01-15T02:42:46;15.07;;;7.07;;
3379;SDS011;1703;51.964;7.642;2024-01-15T02:45:13;12.50;;;6.27;;
3379;SDS011;1703;51.964;7.642;2024-01-15T02:47:39;14.60;;;7.03;;
3379;SDS011;1703;51.964;7.642;2024-01-15T02:50:06;12.10;;;8.03;;
3379;SDS011;1703;51.964;7.642;2024-01-15T02:52:33;14.13;;;7.50;;
3379;SDS011;1703;51.964;7.642;2024-01-15T02:55:00;13.87;;;7.43;;
3379;SDS011;1703;51.964;7.642;2024-01-15T02:57:28;18.50;;;6.80;;
3379;SDS011;1703;51.964;7.642;2024-01-15T02:59:55;10.50;;;6.27;;
3379;SDS011;1703;51.964;7.642;2024-01-15T03:02:22;15.77;;;8.30;;
3379;SDS011;1703;51.964;7.642;2024-01-15T03:04:48;12.97;;;7.70;;
3379;SDS011;1703;51.964;7.642;2024-01-15T03:07:15;10.60;;;6.83;;
3379;SDS011;1703;51.964;7.642;2024-01-15T03:09:42;23.53;;;7.97;;
3379;SDS011;1703;51.964;7.642;2024-01-15T03:12:09;18.23;;;7.60;;
3379;SDS011;1703;51.964;7.642;2024-01-15T03:14:37;14.30;;;6.93;;
3379;SDS011;1703;51.964;7.642;2024-01-15T03:17:04;18.40;;;6.00;;
3379;SDS011;1703;51.964;7.642;2024-01-15T03:19:31;17.63;;;8.60;;
3379;SDS011;1703;51.964;7.642;2024-01-15T03:22:00;14.47;;;7.93;;
3379;SDS011;1703;51.964;7.642;2024-01-15T03:24:28;15.33;;;6.70;;
3379;SDS011;1703;51.964;7.642;2024-01-15T03:26:55;13.40;;;6.90;;
3379;SDS011;1703;51.964;7.642;2024-01-15T03:29:22;14.20;;;6.83;;
3379;SDS011;1703;51.964;7.642;2024-01-15T03:31:50;12.13;;;5.70;;
3379;SDS011;1703;51.964;7.642;2024-01-15T03:37:18;9.60;;;6.53;;
3379;SDS011;1703;51.964;7.642;2024-01-15T03:39:45;24.43;;;7.47;;
3379;SDS011;1703;51.964;7.642;2024-01-15T03:42:12;20.57;;;6.20;;
3379;SDS011;1703;51.964;7.642;2024-01-15T03:44:39;13.77;;;7.30;;
3379;SDS011;1703;51.964;7.642;2024-01-15T03:47:07;16.20;;;6.13;;
3379;SDS011;1703;51.964;7.642;2024-01-15T03:49:34;15.37;;;7.53;;
3379;SDS011;1703;51.964;7.642;2024-01-15T03:52:01;12.23;;;6.80;;
3379;SDS011;1703;51.964;7.642;2024-01-15T03:54:27;12.90;;;6.10;;
3379;SDS011;1703;51.964;7.642;2024-01-15T03:56:54;8.50;;;4.83;;
3379;SDS011;1703;51.964;7.642;2024-01-15T03:59:21;22.00;;;6.60;;
3379;SDS011;1703;51.964;7.642;2024-01-15T04:01:48;11.87;;;5.93;;
3379;SDS011;1703;51.964;7.642;2024-01-15T04:04:17;8.13;;;4.87;;
3379;SDS011;1703;51.964;7.642;2024-01-15T04:06:44;15.53;;;5.97;;
3379;SDS011;1703;51.964;7.642;2024-01-15T04:09:11;9.27;;;4.60;;
3379;SDS011;1703;51.964;7.642;2024-01-15T04:11:38;12.43;;;5.83;;
3379;SDS011;1703;51.964;7.642;2024-01-15T04:14:05;15.13;;;6.17;;
3379;SDS011;1703;51.964;7.642;2024-01-15T04:16:32;15.37;;;5.50;;
3379;SDS011;1703;51.964;7.642;2024-01-15T04:18:59;7.20;;;4.87;;
3379;SDS011;1703;51.964;7.642;2024-01-15T04:21:27;15.63;;;5.57;;
3379;SDS011;1703;51.964;7.642;2024-01-15T04:23:53;15.40;;;5.87;;
3379;SDS011;1703;51.964;7.642;2024-01-15T04:26:20;11.47;;;5.90;;
3379;SDS011;1703;51.964;7.642;2024-01-15T04:28:47;9.17;;;5.53;;
3379;SDS011;1703;51.964;7.642;2024-01-15T04:31:20;7.83;;;5.23;;
3379;SDS011;1703;51.964;7.642;2024-01-15T04:33:48;9.90;;;5.73;;
3379;SDS011;1703;51.964;7.642;2024-01-15T04:36:15;4.53;;;4.13;;
3379;SDS011;1703;51.964;7.642;2024-01-15T04:38:43;10.70;;;5.70;;
3379;SDS011;1703;51.964;7.642;2024-01-15T04:41:10;12.40;;;5.97;;
3379;SDS011;1703;51.964;7.642;2024-01-15T04:43:38;14.03;;;4.77;;
3379;SDS011;1703;51.964;7.642;2024-01-15T04:46:05;12.50;;;4.27;;
3379;SDS011;1703;51.964;7.642;2024-01-15T04:48:32;6.53;;;4.80;;
3379;SDS011;1703;51.964;7.642;2024-01-15T04:50:59;7.87;;;4.27;;
3379;SDS011;1703;51.964;7.642;2024-01-15T04:53:25;21.50;;;4.80;;
3379;SDS011;1703;51.964;7.642;2024-01-15T04:55:54;10.37;;;5.80;;
3379;SDS011;1703;51.964;7.642;2024-01-15T04:58:20;13.10;;;5.37;;
3379;SDS011;1703;51.964;7.642;2024-01-15T05:00:50;9.60;;;4.17;;
3379;SDS011;1703;51.964;7.642;2024-01-15T05:03:17;7.17;;;5.30;;
3379;SDS011;1703;51.964;7.642;2024-01-15T05:05:44;9.40;;;5.10;;
3379;SDS011;1703;51.964;7.642;2024-01-15T05:08:10;10.17;;;5.70;;
3379;SDS011;1703;51.964;7.642;2024-01-15T05:10:37;15.07;;;6.77;;
3379;SDS011;1703;51.964;7.642;2024-01-15T05:13:05;15.40;;;7.40;;
3379;SDS011;1703;51.964;7.642;2024-01-15T05:15:32;8.93;;;5.63;;
3379;SDS011;1703;51.964;7.642;2024-01-15T05:17:59;18.13;;;6.03;;
3379;SDS011;1703;51.964;7.642;2024-01-15T05:20:25;16.93;;;6.33;;
3379;SDS011;1703;51.964;7.642;2024-01-15T05:22:52;8.80;;;5.50;;
3379;SDS011;1703;51.964;7.642;2024-01-15T05:25:19;15.97;;;6.80;;
3379;SDS011;1703;51.964;7.642;2024-01-15T05:27:46;10.17;;;5.20;;
3379;SDS011;1703;51.964;7.642;2024-01-15T05:30:16;11.10;;;4.67;;
3379;SDS011;1703;51.964;7.642;2024-01-15T05:32:44;7.37;;;3.83;;
3379;SDS011;1703;51.964;7.642;2024-01-15T05:35:13;8.47;;;4.60;;
3379;SDS011;1703;51.964;7.642;2024-01-15T05:37:44;19.93;;;5.90;;
3379;SDS011;1703;51.964;7.642;2024-01-15T05:40:11;12.20;;;5.30;;
3379;SDS011;1703;51.964;7.642;2024-01-15T05:42:38;8.03;;;4.43;;
3379;SDS011;1703;51.964;7.642;2024-01-15T05:45:06;7.07;;;3.63;;
3379;SDS011;1703;51.964;7.642;2024-01-15T05:47:36;5.83;;;4.20;;
3379;SDS011;1703;51.964;7.642;2024-01-15T05:50:02;7.83;;;4.73;;
3379;SDS011;1703;51.964;7.642;2024-01-15T05:52:30;17.17;;;3.93;;
3379;SDS011;1703;51.964;7.642;2024-01-15T05:54:57;6.33;;;3.97;;
3379;SDS011;1703;51.964;7.642;2024-01-15T05:57:23;13.63;;;4.23;;
3379;SDS011;1703;51.964;7.642;2024-01-15T05:59:50;11.73;;;4.70;;
3379;SDS011;1703;51.964;7.642;2024-01-15T06:02:17;18.37;;;4.87;;
3379;SDS011;1703;51.964;7.642;2024-01-15T06:04:45;4.80;;;3.83;;
3379;SDS011;1703;51.964;7.642;2024-01-15T06:07:12;13.30;;;5.43;;
3379;SDS011;1703;51.964;7.642;2024-01-15T06:09:39;5.90;;;4.30;;
3379;SDS011;1703;51.964;7.642;2024-01-15T06:12:07;8.27;;;5.10;;
3379;SDS011;1703;51.964;7.642;2024-01-15T06:14:34;7.70;;;5.20;;
3379;SDS011;1703;51.964;7.642;2024-01-15T06:17:01;8.93;;;4.43;;
3379;SDS011;1703;51.964;7.642;2024-01-15T06:19:27;8.00;;;4.13;;
3379;SDS011;1703;51.964;7.642;2024-01-15T06:21:56;20.03;;;4.73;;
3379;SDS011;1703;51.964;7.642;2024-01-15T06:24:23;5.00;;;3.57;;
3379;SDS011;1703;51.964;7.642;2024-01-15T06:26:50;9.10;;;4.63;;
3379;SDS011;1703;51.964;7.642;2024-01-15T06:29:19;8.80;;;4.30;;
3379;SDS011;1703;51.964;7.642;2024-01-15T06:31:45;12.23;;;4.00;;
3379;SDS011;1703;51.964;7.642;2024-01-15T06:34:12;9.40;;;4.73;;
3379;SDS011;1703;51.964;7.642;2024-01-15T06:36:39;5.53;;;3.50;;
3379;SDS011;1703;51.964;7.642;2024-01-15T06:39:07;4.03;;;3.37;;
3379;SDS011;1703;51.964;7.642;2024-01-15T06:41:37;7.43;;;4.10;;
3379;SDS011;1703;51.964;7.642;2024-01-15T06:44:08;5.77;;;3.53;;
3379;SDS011;1703;51.964;7.642;2024-01-15T06:46:35;16.47;;;7.10;;
3379;SDS011;1703;51.964;7.642;2024-01-15T06:49:01;5.05;;;4.43;;
3379;SDS011;1703;51.964;7.642;2024-01-15T06:51:29;4.27;;;3.40;;
3379;SDS011;1703;51.964;7.642;2024-01-15T06:53:56;5.90;;;4.70;;
3379;SDS011;1703;51.964;7.642;2024-01-15T06:56:24;5.53;;;3.70;;
3379;SDS011;1703;51.964;7.642;2024-01-15T06:58:50;5.20;;;3.43;;
3379;SDS011;1703;51.964;7.642;2024-01-15T07:01:17;7.20;;;3.87;;
3379;SDS011;1703;51.964;7.642;2024-01-15T07:03:44;9.17;;;3.50;;
3379;SDS011;1703;51.964;7.642;2024-01-15T07:06:11;15.40;;;3.80;;
3379;SDS011;1703;51.964;7.642;2024-01-15T07:08:37;6.73;;;3.40;;
3379;SDS011;1703;51.964;7.642;2024-01-15T07:11:05;6.00;;;3.33;;
3379;SDS011;1703;51.964;7.642;2024-01-15T07:13:33;7.53;;;3.60;;
3379;SDS011;1703;51.964;7.642;2024-01-15T07:16:00;8.13;;;3.90;;
3379;SDS011;1703;51.964;7.642;2024-01-15T07:18:27;4.07;;;3.07;;
3379;SDS011;1703;51.964;7.642;2024-01-15T07:20:54;11.87;;;3.43;;
3379;SDS011;1703;51.964;7.642;2024-01-15T07:23:21;3.60;;;2.80;;
3379;SDS011;1703;51.964;7.642;2024-01-15T07:25:47;3.17;;;2.87;;
3379;SDS011;1703;51.964;7.642;2024-01-15T07:28:14;2.87;;;2.57;;
3379;SDS011;1703;51.964;7.642;2024-01-15T07:30:43;3.77;;;3.47;;
3379;SDS011;1703;51.964;7.642;2024-01-15T07:33:10;3.27;;;2.97;;
3379;SDS011;1703;51.964;7.642;2024-01-15T07:35:37;6.20;;;3.53;;
3379;SDS011;1703;51.964;7.642;2024-01-15T07:38:04;8.50;;;4.00;;
3379;SDS011;1703;51.964;7.642;2024-01-15T07:40:31;7.10;;;3.73;;
3379;SDS011;1703;51.964;7.642;2024-01-15T07:42:57;4.13;;;3.73;;
3379;SDS011;1703;51.964;7.642;2024-01-15T07:45:24;3.60;;;3.30;;
3379;SDS011;1703;51.964;7.642;2024-01-15T07:47:53;5.27;;;3.90;;
3379;SDS011;1703;51.964;7.642;2024-01-15T07:50:20;5.90;;;4.63;;
3379;SDS011;1703;51.964;7.642;2024-01-15T07:52:47;5.00;;;4.07;;
3379;SDS011;1703;51.964;7.642;2024-01-15T07:55:14;5.50;;;3.93;;
3379;SDS011;1703;51.964;7.642;2024-01-15T07:57:40;10.13;;;4.73;;
3379;SDS011;1703;51.964;7.642;2024-01-15T08:00:08;8.87;;;5.10;;
3379;SDS011;1703;51.964;7.642;2024-01-15T08:02:35;11.30;;;5.27;;
3379;SDS011;1703;51.964;7.642;2024-01-15T08:05:04;9.07;;;4.90;;
3379;SDS011;1703;51.964;7.642;2024-01-15T08:07:31;14.23;;;5.00;;
3379;SDS011;1703;51.964;7.642;2024-01-15T08:09:58;12.47;;;4.33;;
3379;SDS011;1703;51.964;7.642;2024-01-15T08:12:25;6.57;;;4.83;;
3379;SDS011;1703;51.964;7.642;2024-01-15T08:14:51;6.20;;;5.60;;
3379;SDS011;1703;51.964;7.642;2024-01-15T08:17:19;7.33;;;4.87;;
3379;SDS011;1703;51.964;7.642;2024-01-15T08:19:46;7.00;;;4.40;;
3379;SDS011;1703;51.964;7.642;2024-01-15T08:22:14;5.13;;;4.60;;
3379;SDS011;1703;51.964;7.642;2024-01-15T08:24:41;19.50;;;4.40;;
3379;SDS011;1703;51.964;7.642;2024-01-15T08:27:07;11.20;;;4.80;;
3379;SDS011;1703;51.964;7.642;2024-01-15T08:29:34;5.77;;;3.40;;
3379;SDS011;1703;51.964;7.642;2024-01-15T08:32:01;4.50;;;4.10;;
3379;SDS011;1703;51.964;7.642;2024-01-15T08:34:28;8.70;;;4.13;;
3379;SDS011;1703;51.964;7.642;2024-01-15T08:36:56;12.60;;;5.37;;
3379;SDS011;1703;51.964;7.642;2024-01-15T08:39:24;8.93;;;4.57;;
3379;SDS011;1703;51.964;7.642;2024-01-15T08:41:51;6.00;;;3.70;;
3379;SDS011;1703;51.964;7.642;2024-01-15T08:44:17;5.50;;;3.93;;
3379;SDS011;1703;51.964;7.642;2024-01-15T08:46:44;6.50;;;3.60;;
3379;SDS011;1703;51.964;7.642;2024-01-15T08:49:11;4.60;;;3.00;;
3379;SDS011;1703;51.964;7.642;2024-01-15T08:51:38;5.07;;;3.30;;
3379;SDS011;1703;51.964;7.642;2024-01-15T08:54:04;7.90;;;2.90;;
3379;SDS011;1703;51.964;7.642;2024-01-15T08:56:34;4.20;;;3.80;;
3379;SDS011;1703;51.964;7.642;2024-01-15T08:59:01;9.13;;;3.70;;
3379;SDS011;1703;51.964;7.642;2024-01-15T09:01:28;6.40;;;3.77;;
3379;SDS011;1703;51.964;7.642;2024-01-15T09:03:56;9.73;;;3.97;;
3379;SDS011;1703;51.964;7.642;2024-01-15T09:06:23;10.77;;;4.00;;
3379;SDS011;1703;51.964;7.642;2024-01-15T09:08:49;4.00;;;3.60;;
3379;SDS011;1703;51.964;7.642;2024-01-15T09:11:16;6.27;;;3.60;;
3379;SDS011;1703;51.964;7.642;2024-01-15T09:13:44;6.10;;;4.13;;
3379;SDS011;1703;51.964;7.642;2024-01-15T09:16:11;6.90;;;3.90;;
3379;SDS011;1703;51.964;7.642;2024-01-15T09:18:38;5.03;;;3.20;;
3379;SDS011;1703;51.964;7.642;2024-01-15T09:21:04;7.17;;;3.63;;
3379;SDS011;1703;51.964;7.642;2024-01-15T09:23:31;3.03;;;2.73;;
3379;SDS011;1703;51.964;7.642;2024-01-15T09:25:58;11.97;;;3.63;;
3379;SDS011;1703;51.964;7.642;2024-01-15T09:28:24;5.60;;;3.73;;
3379;SDS011;1703;51.964;7.642;2024-01-15T09:30:53;5.77;;;3.30;;
3379;SDS011;1703;51.964;7.642;2024-01-15T09:33:19;6.90;;;3.50;;
3379;SDS011;1703;51.964;7.642;2024-01-15T09:35:46;4.73;;;3.17;;
3379;SDS011;1703;51.964;7.642;2024-01-15T09:38:13;9.23;;;3.97;;
3379;SDS011;1703;51.964;7.642;2024-01-15T09:40:40;4.33;;;3.93;;
3379;SDS011;1703;51.964;7.642;2024-01-15T09:43:11;13.83;;;4.53;;
3379;SDS011;1703;51.964;7.642;2024-01-15T09:45:39;10.00;;;4.10;;
3379;SDS011;1703;51.964;7.642;2024-01-15T09:48:07;4.97;;;3.90;;
3379;SDS011;1703;51.964;7.642;2024-01-15T09:50:34;8.37;;;3.63;;
3379;SDS011;1703;51.964;7.642;2024-01-15T09:53:02;7.63;;;3.53;;
3379;SDS011;1703;51.964;7.642;2024-01-15T09:55:29;3.40;;;3.10;;
3379;SDS011;1703;51.964;7.642;2024-01-15T09:57:57;7.17;;;4.30;;
3379;SDS011;1703;51.964;7.642;2024-01-15T10:00:26;12.83;;;3.50;;
3379;SDS011;1703;51.964;7.642;2024-01-15T10:02:55;3.43;;;3.10;;
3379;SDS011;1703;51.964;7.642;2024-01-15T10:05:23;11.47;;;3.37;;
3379;SDS011;1703;51.964;7.642;2024-01-15T10:07:50;5.73;;;3.43;;
3379;SDS011;1703;51.964;7.642;2024-01-15T10:10:19;5.17;;;4.00;;
3379;SDS011;1703;51.964;7.642;2024-01-15T10:12:47;5.53;;;3.87;;
3379;SDS011;1703;51.964;7.642;2024-01-15T10:15:13;10.00;;;4.87;;
3379;SDS011;1703;51.964;7.642;2024-01-15T10:17:41;6.83;;;4.00;;
3379;SDS011;1703;51.964;7.642;2024-01-15T10:20:08;10.30;;;3.80;;
3379;SDS011;1703;51.964;7.642;2024-01-15T10:22:38;8.50;;;4.40;;
3379;SDS011;1703;51.964;7.642;2024-01-15T10:25:06;4.40;;;3.70;;
3379;SDS011;1703;51.964;7.642;2024-01-15T10:27:36;4.93;;;3.93;;
3379;SDS011;1703;51.964;7.642;2024-01-15T10:30:03;6.50;;;4.07;;
3379;SDS011;1703;51.964;7.642;2024-01-15T10:32:31;3.57;;;2.83;;
3379;SDS011;1703;51.964;7.642;2024-01-15T10:34:58;5.10;;;3.67;;
3379;SDS011;1703;51.964;7.642;2024-01-15T10:37:25;3.80;;;3.03;;
3379;SDS011;1703;51.964;7.642;2024-01-15T10:39:53;4.60;;;3.10;;
3379;SDS011;1703;51.964;7.642;2024-01-15T10:42:20;5.37;;;4.83;;
3379;SDS011;1703;51.964;7.642;2024-01-15T10:44:47;4.60;;;3.23;;
3379;SDS011;1703;51.964;7.642;2024-01-15T10:47:14;4.43;;;3.80;;
3379;SDS011;1703;51.964;7.642;2024-01-15T10:49:41;8.90;;;3.37;;
3379;SDS011;1703;51.964;7.642;2024-01-15T10:52:08;5.50;;;2.73;;
3379;SDS011;1703;51.964;7.642;2024-01-15T10:54:35;4.60;;;2.40;;
3379;SDS011;1703;51.964;7.642;2024-01-15T10:57:06;3.03;;;2.80;;
3379;SDS011;1703;51.964;7.642;2024-01-15T10:59:33;4.73;;;2.57;;
3379;SDS011;1703;51.964;7.642;2024-01-15T11:02:02;2.43;;;2.03;;
3379;SDS011;1703;51.964;7.642;2024-01-15T11:04:31;2.93;;;2.33;;
3379;SDS011;1703;51.964;7.642;2024-01-15T11:06:58;4.67;;;2.90;;
3379;SDS011;1703;51.964;7.642;2024-01-15T11:09:26;4.80;;;2.83;;
3379;SDS011;1703;51.964;7.642;2024-01-15T11:11:53;2.60;;;1.90;;
3379;SDS011;1703;51.964;7.642;2024-01-15T11:14:37;4.70;;;2.70;;
3379;SDS011;1703;51.964;7.642;2024-01-15T11:17:05;3.03;;;2.40;;
3379;SDS011;1703;51.964;7.642;2024-01-15T11:19:36;7.47;;;2.87;;
3379;SDS011;1703;51.964;7.642;2024-01-15T11:22:05;2.70;;;2.00;;
3379;SDS011;1703;51.964;7.642;2024-01-15T11:24:34;3.27;;;2.63;;
3379;SDS011;1703;51.964;7.642;2024-01-15T11:27:02;4.93;;;3.10;;
3379;SDS011;1703;51.964;7.642;2024-01-15T11:29:31;7.10;;;2.53;;
3379;SDS011;1703;51.964;7.642;2024-01-15T11:32:00;3.63;;;2.17;;
3379;SDS011;1703;51.964;7.642;2024-01-15T11:37:27;3.30;;;2.20;;
3379;SDS011;1703;51.964;7.642;2024-01-15T11:39:55;2.67;;;2.27;;
3379;SDS011;1703;51.964;7.642;2024-01-15T11:42:26;7.43;;;2.03;;
3379;SDS011;1703;51.964;7.642;2024-01-15T11:44:54;4.10;;;1.80;;
3379;SDS011;1703;51.964;7.642;2024-01-15T11:47:36;5.60;;;2.60;;
3379;SDS011;1703;51.964;7.642;2024-01-15T11:50:23;7.50;;;2.43;;
3379;SDS011;1703;51.964;7.642;2024-01-15T11:52:55;4.90;;;1.90;;
3379;SDS011;1703;51.964;7.642;2024-01-15T11:55:26;3.80;;;1.33;;
3379;SDS011;1703;51.964;7.642;2024-01-15T11:57:55;3.13;;;1.47;;
3379;SDS011;1703;51.964;7.642;2024-01-15T12:00:27;2.97;;;1.90;;
3379;SDS011;1703;51.964;7.642;2024-01-15T12:02:55;4.50;;;2.30;;
3379;SDS011;1703;51.964;7.642;2024-01-15T12:05:24;3.43;;;1.70;;
3379;SDS011;1703;51.964;7.642;2024-01-15T12:07:51;2.63;;;1.57;;
3379;SDS011;1703;51.964;7.642;2024-01-15T12:10:20;3.97;;;2.27;;
3379;SDS011;1703;51.964;7.642;2024-01-15T12:12:52;2.07;;;1.70;;
3379;SDS011;1703;51.964;7.642;2024-01-15T12:15:23;2.80;;;2.00;;
3379;SDS011;1703;51.964;7.642;2024-01-15T12:17:52;3.20;;;1.40;;
3379;SDS011;1703;51.964;7.642;2024-01-15T12:20:20;5.20;;;1.80;;
3379;SDS011;1703;51.964;7.642;2024-01-15T12:22:47;5.33;;;2.20;;
3379;SDS011;1703;51.964;7.642;2024-01-15T12:25:14;2.97;;;1.90;;
3379;SDS011;1703;51.964;7.642;2024-01-15T12:27:41;5.80;;;2.50;;
3379;SDS011;1703;51.964;7.642;2024-01-15T12:30:10;7.07;;;3.20;;
3379;SDS011;1703;51.964;7.642;2024-01-15T12:32:37;6.57;;;1.60;;
3379;SDS011;1703;51.964;7.642;2024-01-15T12:35:08;4.10;;;1.83;;
3379;SDS011;1703;51.964;7.642;2024-01-15T12:37:35;6.97;;;1.60;;
3379;SDS011;1703;51.964;7.642;2024-01-15T12:40:03;3.80;;;2.30;;
3379;SDS011;1703;51.964;7.642;2024-01-15T12:42:32;7.23;;;2.23;;
3379;SDS011;1703;51.964;7.642;2024-01-15T12:44:59;7.37;;;2.47;;
3379;SDS011;1703;51.964;7.642;2024-01-15T12:47:26;2.20;;;2.00;;
3379;SDS011;1703;51.964;7.642;2024-01-15T12:49:53;1.60;;;1.30;;
3379;SDS011;1703;51.964;7.642;2024-01-15T12:52:21;1.90;;;1.47;;
3379;SDS011;1703;51.964;7.642;2024-01-15T12:54:48;11.13;;;1.50;;
3379;SDS011;1703;51.964;7.642;2024-01-15T12:57:15;4.83;;;1.67;;
3379;SDS011;1703;51.964;7.642;2024-01-15T12:59:42;13.30;;;1.57;;
3379;SDS011;1703;51.964;7.642;2024-01-15T13:02:10;2.87;;;1.77;;
3379;SDS011;1703;51.964;7.642;2024-01-15T13:04:37;8.57;;;1.30;;
3379;SDS011;1703;51.964;7.642;2024-01-15T13:07:05;3.80;;;1.67;;
3379;SDS011;1703;51.964;7.642;2024-01-15T13:09:33;2.70;;;1.70;;
3379;SDS011;1703;51.964;7.642;2024-01-15T13:12:01;4.23;;;1.20;;
3379;SDS011;1703;51.964;7.642;2024-01-15T13:14:28;5.43;;;1.07;;
3379;SDS011;1703;51.964;7.642;2024-01-15T13:16:54;5.30;;;1.57;;
3379;SDS011;1703;51.964;7.642;2024-01-15T13:19:22;3.57;;;1.33;;
3379;SDS011;1703;51.964;7.642;2024-01-15T13:21:49;2.93;;;1.53;;
3379;SDS011;1703;51.964;7.642;2024-01-15T13:24:16;12.80;;;2.10;;
3379;SDS011;1703;51.964;7.642;2024-01-15T13:26:44;2.03;;;1.23;;
3379;SDS011;1703;51.964;7.642;2024-01-15T13:29:12;7.53;;;2.10;;
3379;SDS011;1703;51.964;7.642;2024-01-15T13:31:39;10.13;;;2.10;;
3379;SDS011;1703;51.964;7.642;2024-01-15T13:34:06;3.27;;;1.73;;
3379;SDS011;1703;51.964;7.642;2024-01-15T13:36:34;2.50;;;1.30;;
3379;SDS011;1703;51.964;7.642;2024-01-15T13:39:04;2.30;;;1.63;;
3379;SDS011;1703;51.964;7.642;2024-01-15T13:41:33;3.27;;;1.30;;
3379;SDS011;1703;51.964;7.642;2024-01-15T13:44:02;4.50;;;1.40;;
3379;SDS011;1703;51.964;7.642;2024-01-15T13:46:29;8.60;;;1.30;;
3379;SDS011;1703;51.964;7.642;2024-01-15T13:48:55;2.60;;;1.07;;
3379;SDS011;1703;51.964;7.642;2024-01-15T13:51:22;5.93;;;0.73;;
3379;SDS011;1703;51.964;7.642;2024-01-15T13:53:49;1.93;;;1.10;;
3379;SDS011;1703;51.964;7.642;2024-01-15T13:56:16;7.70;;;1.33;;
3379;SDS011;1703;51.964;7.642;2024-01-15T13:58:43;1.90;;;1.30;;
3379;SDS011;1703;51.964;7.642;2024-01-15T14:01:11;1.70;;;0.97;;
3379;SDS011;1703;51.964;7.642;2024-01-15T14:03:37;5.30;;;1.53;;
3379;SDS011;1703;51.964;7.642;2024-01-15T14:06:04;1.63;;;1.10;;
3379;SDS011;1703;51.964;7.642;2024-01-15T14:08:34;3.17;;;1.13;;
3379;SDS011;1703;51.964;7.642;2024-01-15T14:11:01;8.63;;;1.57;;
3379;SDS011;1703;51.964;7.642;2024-01-15T14:13:28;3.33;;;1.37;;
3379;SDS011;1703;51.964;7.642;2024-01-15T14:15:55;2.07;;;1.13;;
3379;SDS011;1703;51.964;7.642;2024-01-15T14:18:23;3.10;;;1.00;;
3379;SDS011;1703;51.964;7.642;2024-01-15T14:20:50;2.63;;;0.87;;
3379;SDS011;1703;51.964;7.642;2024-01-15T14:23:18;1.30;;;1.10;;
3379;SDS011;1703;51.964;7.642;2024-01-15T14:25:45;7.33;;;1.00;;
3379;SDS011;1703;51.964;7.642;2024-01-15T14:28:12;5.40;;;1.27;;
3379;SDS011;1703;51.964;7.642;2024-01-15T14:30:38;4.27;;;1.27;;
3379;SDS011;1703;51.964;7.642;2024-01-15T14:33:05;0.77;;;0.77;;
3379;SDS011;1703;51.964;7.642;2024-01-15T14:35:33;3.20;;;1.03;;
3379;SDS011;1703;51.964;7.642;2024-01-15T14:38:00;0.87;;;0.83;;
3379;SDS011;1703;51.964;7.642;2024-01-15T14:40:27;15.33;;;1.37;;
3379;SDS011;1703;51.964;7.642;2024-01-15T14:42:54;1.87;;;0.90;;
3379;SDS011;1703;51.964;7.642;2024-01-15T14:45:21;1.23;;;0.87;;
3379;SDS011;1703;51.964;7.642;2024-01-15T14:47:48;4.80;;;1.13;;
3379;SDS011;1703;51.964;7.642;2024-01-15T14:50:15;3.23;;;2.10;;
3379;SDS011;1703;51.964;7.642;2024-01-15T14:52:43;6.07;;;1.23;;
3379;SDS011;1703;51.964;7.642;2024-01-15T14:55:11;4.50;;;1.00;;
3379;SDS011;1703;51.964;7.642;2024-01-15T14:57:38;4.93;;;1.30;;
3379;SDS011;1703;51.964;7.642;2024-01-15T15:00:05;1.97;;;1.30;;
3379;SDS011;1703;51.964;7.642;2024-01-15T15:02:34;1.27;;;1.00;;
3379;SDS011;1703;51.964;7.642;2024-01-15T15:05:01;4.80;;;1.40;;
3379;SDS011;1703;51.964;7.642;2024-01-15T15:07:28;4.40;;;1.43;;
3379;SDS011;1703;51.964;7.642;2024-01-15T15:09:56;3.80;;;1.10;;
3379;SDS011;1703;51.964;7.642;2024-01-15T15:12:22;9.50;;;1.50;;
3379;SDS011;1703;51.964;7.642;2024-01-15T15:14:49;3.13;;;1.63;;
3379;SDS011;1703;51.964;7.642;2024-01-15T15:17:16;5.60;;;2.03;;
3379;SDS011;1703;51.964;7.642;2024-01-15T15:19:42;3.97;;;1.33;;